Latest Coastal Weather Observations for Barrow Island

IDW60701

Issued at 1:53 pm WST Thursday 8 December 2016 (issued every 10 minutes, with the page automatically refreshed every 10 minutes)

About coastal observations | Map of coastal stations | Coastal observations for WA | Marine services | Other Formats
Station Details ID: 005094 Name: BARROW ISLAND AIRPORT Lat: -20.87 Lon: 115.41 Height: 6.4 m
Data from the previous 72 hours. | See also: Recent months at Barrow Island
Date/Time
WST
Temp
°C
Wind Pressure Rain since
9am
mm
Weather Cloud Vis
km
Sea
Height
m
Swell
Dir  Spd
kts
Gust
kts
hPa Trend Height
m
Period
s
Dir
08/01:30pm 33.0 E 10 13 1007.3 - 0.0 - - - - - - -
08/01:00pm 32.7 E 11 12 1007.6 - 0.0 - - - - - - -
08/12:30pm 32.9 E 10 11 1008.0 - 0.0 - - - - - - -
08/12:00pm 31.9 ESE 8 9 1008.5 - 0.0 - - - - - - -
08/11:30am 30.6 ESE 8 10 1008.9 - 0.0 - - - - - - -
08/11:00am 30.9 ESE 8 10 1009.2 - 0.0 - - - - - - -
08/10:30am 30.8 SE 8 9 1009.4 - 0.0 - - - - - - -
08/10:00am 30.8 SE 8 10 1009.6 - 0.0 - - - - - - -
08/09:30am 30.2 SSE 7 9 1009.6 - 0.0 - - - - - - -
08/09:00am 29.8 SSE 7 9 1009.8 - 0.0 - - - - - - -
08/08:30am 29.3 SSE 7 8 1009.7 - 0.0 - - - - - - -
08/08:00am 29.2 S 8 9 1009.6 - 0.0 - - - - - - -
08/07:30am 28.8 SSE 7 9 1009.6 - 0.0 - - - - - - -
08/07:00am 28.2 SSE 9 11 1009.5 - 0.0 - - - - - - -
08/06:30am 27.7 SSE 10 11 1009.5 - 0.0 - - - - - - -
08/06:00am 27.1 S 11 13 1009.3 - 0.0 - - - - - - -
08/05:30am 26.9 S 12 13 1009.2 - 0.0 - - - - - - -
08/05:00am 26.8 S 10 14 1009.1 - 0.0 - - - - - - -
08/04:30am 26.9 SSW 8 10 1008.8 - 0.0 - - - - - - -
08/04:00am 26.8 SSW 8 9 1008.5 - 0.0 - - - - - - -
08/03:30am 25.4 WSW 5 7 1008.1 - 0.0 - - - - - - -
08/03:00am 24.9 NW 7 8 1007.4 - 0.0 - - - - - - -
08/02:30am 25.4 NNW 5 6 1007.6 - 0.0 - - - - - - -
08/02:00am 25.3 NNW 5 7 1007.8 - 0.0 - - - - - - -
08/01:30am 25.7 N 3 3 1008.1 - 0.0 - - - - - - -
08/01:00am 26.6 N 3 5 1008.7 - 0.0 - - - - - - -
08/12:30am 27.4 E 6 7 1009.2 - 0.0 - - - - - - -
08/12:00am 27.4 E 6 7 1009.5 - 0.0 - - - - - - -
 
Date/Time
WST
Temp
°C
Wind Pressure Rain since
9am
mm
Weather Cloud Vis
km
Sea
Height
m
Swell
Dir  Spd
kts
Gust
kts
hPa Trend Height
m
Period
s
Dir
07/11:30pm 27.9 E 8 10 1009.7 - 0.0 - - - - - - -
07/11:00pm 28.0 ENE 10 11 1010.2 - 0.0 - - - - - - -
07/10:30pm 27.8 ENE 12 13 1010.6 - 0.0 - - - - - - -
07/10:00pm 28.1 ENE 12 13 1011.2 - 0.0 - - - - - - -
07/09:30pm 27.7 E 15 17 1011.3 - 0.0 - - - - - - -
07/09:00pm 28.0 E 6 8 1011.2 - 0.0 - - - - - - -
07/08:30pm 27.8 NW 4 26 1010.2 - 0.0 - - - - - - -
07/08:00pm 28.0 N 5 7 1009.7 - 0.0 - - - - - - -
07/07:30pm 28.5 N 7 8 1009.3 - 0.0 - - - - - - -
07/07:00pm 28.8 N 7 10 1008.9 - 0.0 - - - - - - -
07/06:30pm 29.5 NNW 8 11 1008.3 - 0.0 - - - - - - -
07/06:00pm 30.6 NNW 8 11 1007.8 - 0.0 - - - - - - -
07/05:30pm 30.1 SSW 4 6 1007.4 - 0.0 - - - - - - -
07/05:00pm 31.1 WSW 7 13 1007.4 - 0.0 - - - - - - -
07/04:30pm 30.0 S 6 7 1007.6 - 0.0 - - - - - - -
07/04:00pm 30.0 S 9 11 1007.8 - 0.0 - - - - - - -
07/03:30pm 30.7 S 8 10 1008.0 - 0.0 - - - - - - -
07/03:00pm 29.6 S 7 8 1008.1 - 0.0 - - - - - - -
07/02:30pm 30.6 SSW 10 12 1008.4 - 0.0 - - - - - - -
07/02:00pm 30.4 SW 7 13 1008.9 - 0.0 - - - - - - -
07/01:49pm 30.3 NE 16 21 1008.7 - 0.0 - - - - - - -
07/01:30pm 30.9 ESE 8 10 1009.1 - 0.0 - - - - - - -
07/01:00pm 30.3 SSE 6 8 1009.6 - 0.0 - - - - - - -
07/12:30pm 30.1 SSE 7 8 1009.7 - 0.0 - - - - - - -
07/12:00pm 29.4 S 6 7 1009.9 - 0.0 - - - - - - -
07/11:30am 30.0 S 6 7 1010.2 - 0.0 - - - - - - -
07/11:00am 29.5 SSE 6 7 1010.5 - 0.0 - - - - - - -
07/10:30am 29.7 S 8 9 1010.5 - 0.0 - - - - - - -
07/10:00am 29.2 S 9 11 1010.6 - 0.0 - - - - - - -
07/09:30am 28.6 S 8 9 1010.7 - 0.0 - - - - - - -
07/09:00am 29.5 SSE 5 7 1010.9 - 0.0 - - - - - - -
07/08:30am 29.0 ENE 8 10 1010.6 - 0.0 - - - - - - -
07/08:00am 28.4 ENE 9 11 1010.4 - 0.0 - - - - - - -
07/07:30am 28.4 NE 8 11 1010.4 - 0.0 - - - - - - -
07/07:00am 28.1 NNE 8 10 1010.2 - 0.0 - - - - - - -
07/06:30am 26.0 NNE 8 9 1010.0 - 0.0 - - - - - - -
07/06:00am 24.9 NNE 7 8 1009.6 - 0.0 - - - - - - -
07/05:30am 24.3 NNE 6 8 1009.6 - 0.0 - - - - - - -
07/05:00am 24.7 NNE 6 7 1009.2 - 0.0 - - - - - - -
07/04:30am 24.5 NNE 7 8 1009.1 - 0.0 - - - - - - -
07/04:00am 24.3 N 5 5 1009.1 - 0.0 - - - - - - -
07/03:30am 24.3 NW 5 6 1008.9 - 0.0 - - - - - - -
07/03:00am 24.0 WNW 3 4 1009.0 - 0.0 - - - - - - -
07/02:30am 23.9 WNW 5 5 1009.1 - 0.0 - - - - - - -
07/02:00am 24.2 W 3 4 1009.2 - 0.0 - - - - - - -
07/01:30am 24.4 W 4 5 1009.5 - 0.0 - - - - - - -
07/01:00am 24.5 W 3 4 1009.7 - 0.0 - - - - - - -
07/12:30am 24.5 WNW 3 4 1009.9 - 0.0 - - - - - - -
07/12:00am 24.7 WNW 3 4 1010.3 - 0.0 - - - - - - -
 
Date/Time
WST
Temp
°C
Wind Pressure Rain since
9am
mm
Weather Cloud Vis
km
Sea
Height
m
Swell
Dir  Spd
kts
Gust
kts
hPa Trend Height
m
Period
s
Dir
06/11:30pm 24.7 WNW 4 5 1010.3 - 0.0 - - - - - - -
06/11:00pm 24.7 WNW 6 6 1010.3 - 0.0 - - - - - - -
06/10:30pm 24.5 W 5 6 1010.4 - 0.0 - - - - - - -
06/10:00pm 24.8 NW 4 5 1010.4 - 0.0 - - - - - - -
06/09:30pm 25.0 WNW 3 5 1010.4 - 0.0 - - - - - - -
06/09:00pm 25.4 W 4 5 1010.2 - 0.0 - - - - - - -
06/08:30pm 25.6 NW 5 7 1010.0 - 0.0 - - - - - - -
06/08:00pm 26.0 NNW 7 9 1009.5 - 0.0 - - - - - - -
06/07:30pm 26.2 NW 8 10 1008.9 - 0.0 - - - - - - -
06/07:00pm 26.5 NW 10 13 1008.4 - 0.0 - - - - - - -
06/06:30pm 27.1 NW 12 15 1007.8 - 0.0 - - - - - - -
06/06:00pm 27.9 NW 13 16 1007.3 - 0.0 - - - - - - -
06/05:30pm 28.7 NW 15 18 1006.8 - 0.0 - - - - - - -
06/05:00pm 30.1 NNW 13 17 1006.8 - 0.0 - - - - - - -
06/04:30pm 30.4 NNW 13 17 1006.7 - 0.0 - - - - - - -
06/04:00pm 30.9 NNW 13 16 1006.6 - 0.0 - - - - - - -
06/03:30pm 31.5 NNW 12 17 1006.8 - 0.0 - - - - - - -
06/03:00pm 32.2 NW 12 16 1007.2 - 0.0 - - - - - - -
06/02:30pm 29.6 S 10 12 1007.8 - 0.0 - - - - - - -
06/02:00pm 30.3 SSW 8 11 1007.8 - 0.0 - - - - - - -
06/01:30pm 28.8 ENE 12 16 1008.0 - 0.0 - - - - - - -
06/01:00pm 29.1 ENE 11 13 1008.6 - 0.0 - - - - - - -
06/12:30pm 29.3 ENE 10 12 1008.7 - 0.0 - - - - - - -
06/12:00pm 28.9 E 11 12 1009.1 - 0.0 - - - - - - -
06/11:30am 29.6 E 8 9 1009.2 - 0.0 - - - - - - -
06/11:00am 28.1 E 6 7 1009.4 - 0.0 - - - - - - -
06/10:30am 29.2 ESE 5 6 1009.6 - 0.0 - - - - - - -
06/10:00am 28.1 S 5 7 1009.7 - 0.0 - - - - - - -
06/09:30am 27.5 S 7 9 1009.7 - 0.0 - - - - - - -
06/09:00am 27.6 S 10 11 1009.6 - 0.0 - - - - - - -
06/08:30am 27.1 SSW 10 11 1009.6 - 0.0 - - - - - - -
06/08:00am 26.6 SSW 10 12 1009.8 - 0.0 - - - - - - -
06/07:30am 25.9 SSW 12 14 1009.6 - 0.0 - - - - - - -
06/07:00am 25.4 SSW 14 15 1009.4 - 0.0 - - - - - - -
06/06:30am 24.9 SSW 15 17 1009.2 - 0.0 - - - - - - -
06/06:00am 24.8 SSW 14 19 1009.0 - 0.0 - - - - - - -
06/05:30am 24.4 SW 13 15 1008.9 - 0.0 - - - - - - -
06/05:00am 24.6 SW 13 15 1008.8 - 0.0 - - - - - - -
06/04:30am 24.6 SW 12 14 1008.7 - 0.0 - - - - - - -
06/04:00am 24.6 SW 16 18 1008.5 - 0.0 - - - - - - -
06/03:30am 24.6 SW 14 17 1008.6 - 0.0 - - - - - - -
06/03:00am 24.6 SW 14 17 1008.6 - 0.0 - - - - - - -
06/02:30am 24.5 SW 15 18 1008.5 - 0.0 - - - - - - -
06/02:00am 24.7 SW 17 20 1008.6 - 0.0 - - - - - - -
06/01:30am 24.5 WSW 17 21 1008.2 - 0.0 - - - - - - -
06/01:00am 24.4 WSW 15 19 1008.3 - 0.0 - - - - - - -
06/12:30am 24.5 WSW 14 19 1008.5 - 0.0 - - - - - - -
06/12:00am 24.5 WSW 13 16 1009.0 - 0.0 - - - - - - -
 
Date/Time
WST
Temp
°C
Wind Pressure Rain since
9am
mm
Weather Cloud Vis
km
Sea
Height
m
Swell
Dir  Spd
kts
Gust
kts
hPa Trend Height
m
Period
s
Dir
05/11:30pm 24.3 WSW 12 15 1009.3 - 0.0 - - - - - - -
05/11:00pm 24.1 W 11 13 1009.4 - 0.0 - - - - - - -
05/10:30pm 24.2 W 11 13 1009.5 - 0.0 - - - - - - -
05/10:00pm 24.5 W 11 14 1009.4 - 0.0 - - - - - - -
05/09:30pm 24.6 W 12 14 1009.1 - 0.0 - - - - - - -
05/09:00pm 24.6 W 12 15 1008.9 - 0.0 - - - - - - -
05/08:30pm 24.7 W 12 15 1008.6 - 0.0 - - - - - - -
05/08:00pm 24.7 W 12 16 1008.2 - 0.0 - - - - - - -
05/07:30pm 24.9 W 13 16 1008.0 - 0.0 - - - - - - -
05/07:00pm 25.2 W 13 16 1007.7 - 0.0 - - - - - - -
05/06:30pm 25.7 W 15 19 1007.4 - 0.0 - - - - - - -
05/06:00pm 26.4 W 15 19 1007.0 - 0.0 - - - - - - -
05/05:30pm 27.1 W 17 21 1006.9 - 0.0 - - - - - - -
05/05:00pm 27.9 W 16 20 1006.8 - 0.0 - - - - - - -
05/04:30pm 28.1 W 16 20 1006.8 - 0.0 - - - - - - -
05/04:00pm 28.1 W 16 20 1006.9 - 0.0 - - - - - - -
05/03:30pm 28.4 W 16 20 1007.1 - 0.0 - - - - - - -
05/03:00pm 29.0 W 16 21 1007.3 - 0.0 - - - - - - -
05/02:30pm 28.5 WSW 15 19 1007.5 - 0.0 - - - - - - -
05/02:00pm 28.5 WSW 15 19 1007.7 - 0.0 - - - - - - -

Other Formats:

Comma delimited format used in spreadsheet applications
http://www.bom.gov.au/fwo/IDW60701/IDW60701.95304.axf

JavaScript Object Notation format (JSON) in row-major order
http://www.bom.gov.au/fwo/IDW60701/IDW60701.95304.json